sensor_id;sensor_type;location;lat;lon;timestamp;pressure;altitude;pressure_sealevel;temperature;humidity
10476;BME280;26166;48.264;11.436;2023-01-31T00:01:51;96829.00;;;8.51;48.88
10476;BME280;26166;48.264;11.436;2023-01-31T00:04:52;96830.91;;;8.49;48.60
10476;BME280;26166;48.264;11.436;2023-01-31T00:07:52;96831.75;;;8.50;48.73
10476;BME280;26166;48.264;11.436;2023-01-31T00:10:53;96838.94;;;8.48;49.06
10476;BME280;26166;48.264;11.436;2023-01-31T00:13:53;96843.91;;;8.51;48.91
10476;BME280;26166;48.264;11.436;2023-01-31T00:16:54;96850.78;;;8.52;48.58
10476;BME280;26166;48.264;11.436;2023-01-31T00:19:54;96842.78;;;8.53;48.81
10476;BME280;26166;48.264;11.436;2023-01-31T00:22:54;96824.44;;;8.53;48.85
10476;BME280;26166;48.264;11.436;2023-01-31T00:25:54;96825.41;;;8.52;48.90
10476;BME280;26166;48.264;11.436;2023-01-31T00:28:55;96841.94;;;8.53;48.90
10476;BME280;26166;48.264;11.436;2023-01-31T00:31:56;96846.22;;;8.54;48.77
10476;BME280;26166;48.264;11.436;2023-01-31T00:34:56;96842.78;;;8.53;48.62
10476;BME280;26166;48.264;11.436;2023-01-31T00:37:56;96832.19;;;8.55;48.80
10476;BME280;26166;48.264;11.436;2023-01-31T00:40:56;96831.47;;;8.53;48.55
10476;BME280;26166;48.264;11.436;2023-01-31T00:43:57;96834.78;;;8.55;48.48
10476;BME280;26166;48.264;11.436;2023-01-31T00:46:57;96843.91;;;8.51;48.75
10476;BME280;26166;48.264;11.436;2023-01-31T00:49:57;96856.84;;;8.52;48.80
10476;BME280;26166;48.264;11.436;2023-01-31T00:52:58;96851.59;;;8.52;48.72
10476;BME280;26166;48.264;11.436;2023-01-31T00:56:03;96836.72;;;8.53;48.69
10476;BME280;26166;48.264;11.436;2023-01-31T00:59:03;96839.22;;;8.54;48.73
10476;BME280;26166;48.264;11.436;2023-01-31T01:02:07;96832.19;;;8.55;48.61
10476;BME280;26166;48.264;11.436;2023-01-31T01:05:07;96824.59;;;8.52;48.50
10476;BME280;26166;48.264;11.436;2023-01-31T01:08:08;96828.84;;;8.53;48.54
10476;BME280;26166;48.264;11.436;2023-01-31T01:14:15;96831.63;;;8.51;48.81
10476;BME280;26166;48.264;11.436;2023-01-31T01:17:15;96826.38;;;8.51;48.78
10476;BME280;26166;48.264;11.436;2023-01-31T01:20:15;96828.19;;;8.51;48.77
10476;BME280;26166;48.264;11.436;2023-01-31T01:23:16;96827.34;;;8.50;48.78
10476;BME280;26166;48.264;11.436;2023-01-31T01:26:17;96831.63;;;8.51;48.80
10476;BME280;26166;48.264;11.436;2023-01-31T01:29:18;96835.06;;;8.52;48.83
10476;BME280;26166;48.264;11.436;2023-01-31T01:32:18;96841.94;;;8.53;48.91
10476;BME280;26166;48.264;11.436;2023-01-31T01:35:18;96838.50;;;8.52;48.72
10476;BME280;26166;48.264;11.436;2023-01-31T01:38:19;96841.94;;;8.53;48.75
10476;BME280;26166;48.264;11.436;2023-01-31T01:41:20;96844.56;;;8.53;48.73
10476;BME280;26166;48.264;11.436;2023-01-31T01:44:41;96849.38;;;8.57;48.52
10476;BME280;26166;48.264;11.436;2023-01-31T01:47:44;96856.56;;;8.55;48.72
10476;BME280;26166;48.264;11.436;2023-01-31T01:50:46;96853.94;;;8.55;48.80
10476;BME280;26166;48.264;11.436;2023-01-31T01:53:49;96852.97;;;8.56;48.57
10476;BME280;26166;48.264;11.436;2023-01-31T01:56:53;96852.97;;;8.56;48.67
10476;BME280;26166;48.264;11.436;2023-01-31T02:00:02;96860.69;;;8.58;48.72
10476;BME280;26166;48.264;11.436;2023-01-31T02:03:04;96861.66;;;8.57;48.51
10476;BME280;26166;48.264;11.436;2023-01-31T02:06:05;96866.88;;;8.57;48.63
10476;BME280;26166;48.264;11.436;2023-01-31T02:09:06;96862.34;;;8.59;48.73
10476;BME280;26166;48.264;11.436;2023-01-31T02:12:10;96871.47;;;8.55;48.99
10476;BME280;26166;48.264;11.436;2023-01-31T02:15:11;96868.69;;;8.56;48.77
10476;BME280;26166;48.264;11.436;2023-01-31T02:18:11;96869.78;;;8.54;48.75
10476;BME280;26166;48.264;11.436;2023-01-31T02:25:10;96872.28;;;8.55;48.91
10476;BME280;26166;48.264;11.436;2023-01-31T02:34:12;96871.47;;;8.55;49.06
10476;BME280;26166;48.264;11.436;2023-01-31T02:40:36;96873.38;;;8.53;48.71
10476;BME280;26166;48.264;11.436;2023-01-31T02:47:26;96879.72;;;8.50;48.90
10476;BME280;26166;48.264;11.436;2023-01-31T02:50:33;96881.22;;;8.53;48.92
10476;BME280;26166;48.264;11.436;2023-01-31T02:53:36;96898.47;;;8.55;48.96
10476;BME280;26166;48.264;11.436;2023-01-31T02:56:41;96890.59;;;8.55;48.99
10476;BME280;26166;48.264;11.436;2023-01-31T02:59:43;96883.84;;;8.53;49.07
10476;BME280;26166;48.264;11.436;2023-01-31T03:02:44;96889.09;;;8.53;49.16
10476;BME280;26166;48.264;11.436;2023-01-31T03:05:55;96894.31;;;8.53;49.04
10476;BME280;26166;48.264;11.436;2023-01-31T03:12:41;96904.69;;;8.54;48.66
10476;BME280;26166;48.264;11.436;2023-01-31T03:19:13;96910.28;;;8.50;48.77
10476;BME280;26166;48.264;11.436;2023-01-31T03:22:16;96921.63;;;8.50;48.74
10476;BME280;26166;48.264;11.436;2023-01-31T03:25:23;96920.75;;;8.50;49.00
10476;BME280;26166;48.264;11.436;2023-01-31T03:28:26;96928.34;;;8.53;48.76
10476;BME280;26166;48.264;11.436;2023-01-31T03:34:28;96936.47;;;8.50;48.54
10476;BME280;26166;48.264;11.436;2023-01-31T03:40:36;96939.81;;;8.52;48.71
10476;BME280;26166;48.264;11.436;2023-01-31T03:43:46;96949.31;;;8.53;48.54
10476;BME280;26166;48.264;11.436;2023-01-31T03:46:50;96958.81;;;8.54;48.34
10476;BME280;26166;48.264;11.436;2023-01-31T03:49:53;96952.91;;;8.52;48.43
10476;BME280;26166;48.264;11.436;2023-01-31T03:52:56;96955.25;;;8.55;48.54
10476;BME280;26166;48.264;11.436;2023-01-31T03:56:00;96952.34;;;8.58;48.46
10476;BME280;26166;48.264;11.436;2023-01-31T03:59:04;96954.13;;;8.57;48.61
10476;BME280;26166;48.264;11.436;2023-01-31T04:02:06;96954.69;;;8.61;48.34
10476;BME280;26166;48.264;11.436;2023-01-31T04:05:13;96951.09;;;8.62;48.22
10476;BME280;26166;48.264;11.436;2023-01-31T04:08:15;96966.97;;;8.61;48.24
10476;BME280;26166;48.264;11.436;2023-01-31T04:11:18;96967.94;;;8.59;48.22
10476;BME280;26166;48.264;11.436;2023-01-31T04:14:19;96975.78;;;8.59;48.08
10476;BME280;26166;48.264;11.436;2023-01-31T04:17:19;96976.19;;;8.55;48.07
10476;BME280;26166;48.264;11.436;2023-01-31T04:20:19;96981.28;;;8.56;48.11
10476;BME280;26166;48.264;11.436;2023-01-31T04:23:19;96977.84;;;8.56;48.27
10476;BME280;26166;48.264;11.436;2023-01-31T04:26:20;96985.56;;;8.57;48.19
10476;BME280;26166;48.264;11.436;2023-01-31T04:29:20;96983.75;;;8.58;48.05
10476;BME280;26166;48.264;11.436;2023-01-31T04:32:20;96991.91;;;8.55;48.14
10476;BME280;26166;48.264;11.436;2023-01-31T04:35:20;97003.03;;;8.38;48.58
10476;BME280;26166;48.264;11.436;2023-01-31T04:38:20;96998.47;;;8.40;48.49
10476;BME280;26166;48.264;11.436;2023-01-31T04:41:21;97009.78;;;8.40;48.32
10476;BME280;26166;48.264;11.436;2023-01-31T04:44:21;97003.72;;;8.40;48.30
10476;BME280;26166;48.264;11.436;2023-01-31T04:47:21;97016.13;;;8.38;48.47
10476;BME280;26166;48.264;11.436;2023-01-31T04:50:21;97023.25;;;8.35;48.33
10476;BME280;26166;48.264;11.436;2023-01-31T04:53:22;97015.31;;;8.37;48.40
10476;BME280;26166;48.264;11.436;2023-01-31T04:56:24;97017.94;;;8.37;48.58
10476;BME280;26166;48.264;11.436;2023-01-31T04:59:27;97018.16;;;8.34;48.39
10476;BME280;26166;48.264;11.436;2023-01-31T05:02:29;97019.13;;;8.33;48.58
10476;BME280;26166;48.264;11.436;2023-01-31T05:05:31;97013.06;;;8.32;48.36
10476;BME280;26166;48.264;11.436;2023-01-31T05:08:32;97012.53;;;8.39;48.05
10476;BME280;26166;48.264;11.436;2023-01-31T05:11:32;97011.56;;;8.40;48.19
10476;BME280;26166;48.264;11.436;2023-01-31T05:14:33;97015.22;;;8.27;48.21
10476;BME280;26166;48.264;11.436;2023-01-31T05:17:33;97014.28;;;8.28;48.33
10476;BME280;26166;48.264;11.436;2023-01-31T05:20:35;97025.97;;;8.24;48.27
10476;BME280;26166;48.264;11.436;2023-01-31T05:23:37;97027.91;;;8.32;48.13
10476;BME280;26166;48.264;11.436;2023-01-31T05:26:37;97021.56;;;8.25;48.19
10476;BME280;26166;48.264;11.436;2023-01-31T05:29:38;97027.09;;;8.31;48.10
10476;BME280;26166;48.264;11.436;2023-01-31T05:32:38;97023.16;;;8.37;47.80
10476;BME280;26166;48.264;11.436;2023-01-31T05:35:38;97025.03;;;8.35;48.03
10476;BME280;26166;48.264;11.436;2023-01-31T05:38:41;97019.78;;;8.25;48.45
10476;BME280;26166;48.264;11.436;2023-01-31T05:41:41;97028.31;;;8.27;48.33
10476;BME280;26166;48.264;11.436;2023-01-31T05:44:41;97030.16;;;8.37;48.25
10476;BME280;26166;48.264;11.436;2023-01-31T05:47:41;97029.28;;;8.26;48.34
10476;BME280;26166;48.264;11.436;2023-01-31T05:50:41;97022.97;;;8.29;48.04
10476;BME280;26166;48.264;11.436;2023-01-31T05:53:42;97037.56;;;8.31;48.13
10476;BME280;26166;48.264;11.436;2023-01-31T05:56:42;97029.72;;;8.31;48.35
10476;BME280;26166;48.264;11.436;2023-01-31T05:59:42;97037.13;;;8.26;48.16
10476;BME280;26166;48.264;11.436;2023-01-31T06:02:42;97039.50;;;8.29;47.97
10476;BME280;26166;48.264;11.436;2023-01-31T06:05:43;97030.16;;;8.37;48.03
10476;BME280;26166;48.264;11.436;2023-01-31T06:08:43;97028.47;;;8.35;48.09
10476;BME280;26166;48.264;11.436;2023-01-31T06:11:43;97028.00;;;8.42;47.88
10476;BME280;26166;48.264;11.436;2023-01-31T06:14:44;97022.47;;;8.45;47.55
10476;BME280;26166;48.264;11.436;2023-01-31T06:17:45;97019.59;;;8.48;47.58
10476;BME280;26166;48.264;11.436;2023-01-31T06:20:46;97017.22;;;8.45;47.74
10476;BME280;26166;48.264;11.436;2023-01-31T06:23:46;97014.38;;;8.57;47.16
10476;BME280;26166;48.264;11.436;2023-01-31T06:26:46;97007.31;;;8.48;47.68
10476;BME280;26166;48.264;11.436;2023-01-31T06:29:47;97017.38;;;8.53;47.43
10476;BME280;26166;48.264;11.436;2023-01-31T06:32:47;97018.91;;;8.46;47.63
10476;BME280;26166;48.264;11.436;2023-01-31T06:35:47;97032.41;;;8.51;47.27
10476;BME280;26166;48.264;11.436;2023-01-31T06:38:48;97027.19;;;8.51;47.38
10476;BME280;26166;48.264;11.436;2023-01-31T06:41:49;97037.91;;;8.48;47.40
10476;BME280;26166;48.264;11.436;2023-01-31T06:44:49;97051.56;;;8.42;47.44
10476;BME280;26166;48.264;11.436;2023-01-31T06:47:49;97061.34;;;8.49;47.44
10476;BME280;26166;48.264;11.436;2023-01-31T06:50:49;97059.66;;;8.39;47.52
10476;BME280;26166;48.264;11.436;2023-01-31T06:53:50;97067.25;;;8.42;47.66
10476;BME280;26166;48.264;11.436;2023-01-31T06:56:51;97078.56;;;8.42;47.55
10476;BME280;26166;48.264;11.436;2023-01-31T06:59:52;97078.97;;;8.47;47.34
10476;BME280;26166;48.264;11.436;2023-01-31T07:02:52;97070.81;;;8.41;47.63
10476;BME280;26166;48.264;11.436;2023-01-31T07:05:52;97069.88;;;8.42;47.60
10476;BME280;26166;48.264;11.436;2023-01-31T07:08:53;97075.13;;;8.42;47.53
10476;BME280;26166;48.264;11.436;2023-01-31T07:11:55;97062.16;;;8.50;47.47
10476;BME280;26166;48.264;11.436;2023-01-31T07:14:55;97065.91;;;8.47;47.25
10476;BME280;26166;48.264;11.436;2023-01-31T07:17:56;97065.59;;;8.41;47.50
10476;BME280;26166;48.264;11.436;2023-01-31T07:20:56;97070.13;;;8.39;47.23
10476;BME280;26166;48.264;11.436;2023-01-31T07:23:57;97063.09;;;8.39;47.47
10476;BME280;26166;48.264;11.436;2023-01-31T07:26:57;97062.09;;;8.30;47.45
10476;BME280;26166;48.264;11.436;2023-01-31T07:29:57;97058.78;;;8.28;47.60
10476;BME280;26166;48.264;11.436;2023-01-31T07:32:58;97061.41;;;8.28;47.84
10476;BME280;26166;48.264;11.436;2023-01-31T07:36:02;97061.81;;;8.24;47.49
10476;BME280;26166;48.264;11.436;2023-01-31T07:39:03;97060.00;;;8.24;47.87
10476;BME280;26166;48.264;11.436;2023-01-31T07:42:05;97061.50;;;8.17;47.69
10476;BME280;26166;48.264;11.436;2023-01-31T07:45:05;97063.72;;;8.22;47.35
10476;BME280;26166;48.264;11.436;2023-01-31T07:48:06;97067.97;;;8.23;47.70
10476;BME280;26166;48.264;11.436;2023-01-31T07:51:06;97073.09;;;8.24;47.68
10476;BME280;26166;48.264;11.436;2023-01-31T07:54:08;97075.44;;;8.27;47.37
10476;BME280;26166;48.264;11.436;2023-01-31T07:57:09;97068.44;;;8.28;47.62
10476;BME280;26166;48.264;11.436;2023-01-31T08:00:13;97069.94;;;8.30;47.28
10476;BME280;26166;48.264;11.436;2023-01-31T08:03:32;97063.19;;;8.28;47.44
10476;BME280;26166;48.264;11.436;2023-01-31T08:06:32;97063.88;;;8.30;47.41
10476;BME280;26166;48.264;11.436;2023-01-31T08:09:32;97063.25;;;8.38;46.99
10476;BME280;26166;48.264;11.436;2023-01-31T08:12:33;97063.94;;;8.40;47.05
10476;BME280;26166;48.264;11.436;2023-01-31T08:15:33;97078.69;;;8.41;46.97
10476;BME280;26166;48.264;11.436;2023-01-31T08:18:33;97072.03;;;8.37;46.97
10476;BME280;26166;48.264;11.436;2023-01-31T08:21:33;97076.19;;;8.39;46.94
10476;BME280;26166;48.264;11.436;2023-01-31T08:24:33;97071.53;;;8.43;47.06
10476;BME280;26166;48.264;11.436;2023-01-31T08:27:34;97064.34;;;8.45;46.83
10476;BME280;26166;48.264;11.436;2023-01-31T08:30:37;97074.00;;;8.44;47.21
10476;BME280;26166;48.264;11.436;2023-01-31T08:33:38;97078.41;;;8.44;47.06
10476;BME280;26166;48.264;11.436;2023-01-31T08:36:38;97073.19;;;8.44;46.74
10476;BME280;26166;48.264;11.436;2023-01-31T08:39:38;97067.69;;;8.47;46.78
10476;BME280;26166;48.264;11.436;2023-01-31T08:42:38;97075.13;;;8.51;46.73
10476;BME280;26166;48.264;11.436;2023-01-31T08:45:38;97077.88;;;8.50;46.39
10476;BME280;26166;48.264;11.436;2023-01-31T08:48:39;97078.84;;;8.49;46.63
10476;BME280;26166;48.264;11.436;2023-01-31T08:51:40;97074.84;;;8.45;46.51
10476;BME280;26166;48.264;11.436;2023-01-31T08:54:44;97080.78;;;8.47;46.40
10476;BME280;26166;48.264;11.436;2023-01-31T08:57:46;97086.00;;;8.47;46.36
10476;BME280;26166;48.264;11.436;2023-01-31T09:00:47;97086.28;;;8.44;46.20
10476;BME280;26166;48.264;11.436;2023-01-31T09:03:47;97087.25;;;8.43;46.13
10476;BME280;26166;48.264;11.436;2023-01-31T09:06:55;97090.81;;;8.42;46.34
10476;BME280;26166;48.264;11.436;2023-01-31T09:09:55;97085.59;;;8.42;46.36
10476;BME280;26166;48.264;11.436;2023-01-31T09:12:57;97077.03;;;8.40;46.45
10476;BME280;26166;48.264;11.436;2023-01-31T09:15:58;97093.44;;;8.42;45.83
10476;BME280;26166;48.264;11.436;2023-01-31T09:18:58;97093.00;;;8.37;46.15
10476;BME280;26166;48.264;11.436;2023-01-31T09:21:59;97091.84;;;8.29;46.45
10476;BME280;26166;48.264;11.436;2023-01-31T09:24:59;97089.91;;;8.31;46.25
10476;BME280;26166;48.264;11.436;2023-01-31T09:28:03;97084.69;;;8.31;46.14
10476;BME280;26166;48.264;11.436;2023-01-31T09:31:11;97085.84;;;8.39;45.94
10476;BME280;26166;48.264;11.436;2023-01-31T09:34:11;97092.06;;;8.38;45.77
10476;BME280;26166;48.264;11.436;2023-01-31T09:37:14;97090.81;;;8.42;45.98
10476;BME280;26166;48.264;11.436;2023-01-31T09:40:19;97094.84;;;8.46;45.70
10476;BME280;26166;48.264;11.436;2023-01-31T09:43:27;97089.47;;;8.47;45.35
10476;BME280;26166;48.264;11.436;2023-01-31T09:46:31;97086.41;;;8.42;45.53
10476;BME280;26166;48.264;11.436;2023-01-31T09:49:37;97099.09;;;8.47;45.45
10476;BME280;26166;48.264;11.436;2023-01-31T09:52:41;97108.19;;;8.43;45.32
10476;BME280;26166;48.264;11.436;2023-01-31T09:55:45;97092.06;;;8.38;45.27
10476;BME280;26166;48.264;11.436;2023-01-31T09:58:51;97096.53;;;8.35;45.00
10476;BME280;26166;48.264;11.436;2023-01-31T10:02:02;97092.06;;;8.38;45.17
10476;BME280;26166;48.264;11.436;2023-01-31T10:05:29;97089.16;;;8.41;44.91
10476;BME280;26166;48.264;11.436;2023-01-31T10:08:45;97077.28;;;8.37;45.12
10476;BME280;26166;48.264;11.436;2023-01-31T10:11:55;97063.09;;;8.39;44.83
10476;BME280;26166;48.264;11.436;2023-01-31T10:14:57;97058.50;;;8.31;45.04
10476;BME280;26166;48.264;11.436;2023-01-31T10:18:10;97052.78;;;8.38;44.71
10476;BME280;26166;48.264;11.436;2023-01-31T10:21:14;97059.69;;;8.48;44.73
10476;BME280;26166;48.264;11.436;2023-01-31T10:24:17;97065.91;;;8.47;44.74
10476;BME280;26166;48.264;11.436;2023-01-31T10:30:49;97057.63;;;8.52;44.32
10476;BME280;26166;48.264;11.436;2023-01-31T10:37:15;97053.94;;;8.54;44.30
10476;BME280;26166;48.264;11.436;2023-01-31T10:40:21;97051.03;;;8.57;44.36
10476;BME280;26166;48.264;11.436;2023-01-31T10:43:57;97045.38;;;8.52;44.39
10476;BME280;26166;48.264;11.436;2023-01-31T10:46:50;97027.75;;;8.54;44.43
10476;BME280;26166;48.264;11.436;2023-01-31T10:49:50;97023.34;;;8.55;43.73
10476;BME280;26166;48.264;11.436;2023-01-31T11:02:31;97013.69;;;8.55;43.44
10476;BME280;26166;48.264;11.436;2023-01-31T11:05:31;97008.31;;;8.57;43.43
10476;BME280;26166;48.264;11.436;2023-01-31T11:08:41;97004.72;;;8.58;43.41
10476;BME280;26166;48.264;11.436;2023-01-31T11:11:53;96988.19;;;8.57;43.31
10476;BME280;26166;48.264;11.436;2023-01-31T11:15:04;96985.44;;;8.59;43.16
10476;BME280;26166;48.264;11.436;2023-01-31T11:18:05;96986.38;;;8.58;43.23
10476;BME280;26166;48.264;11.436;2023-01-31T11:21:08;96974.81;;;8.51;43.42
10476;BME280;26166;48.264;11.436;2023-01-31T11:24:17;96958.69;;;8.55;43.33
10476;BME280;26166;48.264;11.436;2023-01-31T11:27:30;96965.44;;;8.58;43.43
10476;BME280;26166;48.264;11.436;2023-01-31T11:30:35;96962.69;;;8.59;43.38
10476;BME280;26166;48.264;11.436;2023-01-31T11:36:41;96972.34;;;8.59;43.46
10476;BME280;26166;48.264;11.436;2023-01-31T11:39:57;96959.94;;;8.61;43.56
10476;BME280;26166;48.264;11.436;2023-01-31T11:42:59;96966.25;;;8.58;43.45
10476;BME280;26166;48.264;11.436;2023-01-31T11:46:00;96936.22;;;8.53;43.79
10476;BME280;26166;48.264;11.436;2023-01-31T11:49:01;96926.84;;;8.60;43.52
10476;BME280;26166;48.264;11.436;2023-01-31T11:55:12;96924.66;;;8.65;43.84
10476;BME280;26166;48.264;11.436;2023-01-31T12:04:17;96917.75;;;8.64;44.02
10476;BME280;26166;48.264;11.436;2023-01-31T12:07:20;96914.44;;;8.62;44.00
10476;BME280;26166;48.264;11.436;2023-01-31T12:10:33;96904.53;;;8.56;44.38
10476;BME280;26166;48.264;11.436;2023-01-31T12:13:53;96913.47;;;8.53;44.48
10476;BME280;26166;48.264;11.436;2023-01-31T12:16:59;96915.81;;;8.56;44.58
10476;BME280;26166;48.264;11.436;2023-01-31T12:20:11;96918.84;;;8.52;44.92
10476;BME280;26166;48.264;11.436;2023-01-31T12:23:20;96914.28;;;8.54;44.96
10476;BME280;26166;48.264;11.436;2023-01-31T12:26:31;96894.59;;;8.50;44.88
10476;BME280;26166;48.264;11.436;2023-01-31T12:33:04;96877.78;;;8.52;45.36
10476;BME280;26166;48.264;11.436;2023-01-31T12:42:20;96882.44;;;8.58;45.35
10476;BME280;26166;48.264;11.436;2023-01-31T12:48:40;96892.09;;;8.58;45.39
10476;BME280;26166;48.264;11.436;2023-01-31T13:01:00;96885.06;;;8.58;45.37
10476;BME280;26166;48.264;11.436;2023-01-31T13:07:14;96861.94;;;8.64;45.48
10476;BME280;26166;48.264;11.436;2023-01-31T13:10:32;96854.78;;;8.56;45.55
10476;BME280;26166;48.264;11.436;2023-01-31T13:13:35;96849.69;;;8.54;45.73
10476;BME280;26166;48.264;11.436;2023-01-31T13:16:38;96859.75;;;8.59;45.68
10476;BME280;26166;48.264;11.436;2023-01-31T13:19:42;96841.94;;;8.63;45.75
10476;BME280;26166;48.264;11.436;2023-01-31T13:22:48;96833.13;;;8.54;45.95
10476;BME280;26166;48.264;11.436;2023-01-31T13:25:54;96832.28;;;8.63;45.62
10476;BME280;26166;48.264;11.436;2023-01-31T13:29:00;96815.47;;;8.66;45.66
10476;BME280;26166;48.264;11.436;2023-01-31T13:35:23;96796.31;;;8.65;46.04
10476;BME280;26166;48.264;11.436;2023-01-31T13:38:25;96802.66;;;8.63;45.80
10476;BME280;26166;48.264;11.436;2023-01-31T13:41:30;96797.28;;;8.64;45.68
10476;BME280;26166;48.264;11.436;2023-01-31T13:44:31;96792.06;;;8.64;46.00
10476;BME280;26166;48.264;11.436;2023-01-31T13:48:33;96797.56;;;8.61;46.01
10476;BME280;26166;48.264;11.436;2023-01-31T13:54:25;96800.47;;;8.68;45.75
10476;BME280;26166;48.264;11.436;2023-01-31T13:57:29;96785.69;;;8.67;45.93
10476;BME280;26166;48.264;11.436;2023-01-31T14:16:33;96800.03;;;8.63;45.83
10476;BME280;26166;48.264;11.436;2023-01-31T14:22:44;96786.66;;;8.66;45.80
10476;BME280;26166;48.264;11.436;2023-01-31T14:26:27;96778.53;;;8.69;45.51
10476;BME280;26166;48.264;11.436;2023-01-31T14:29:25;96763.63;;;8.69;45.36
10476;BME280;26166;48.264;11.436;2023-01-31T14:32:30;96772.75;;;8.65;45.50
10476;BME280;26166;48.264;11.436;2023-01-31T14:45:57;96768.59;;;8.72;45.33
10476;BME280;26166;48.264;11.436;2023-01-31T14:52:07;96783.75;;;8.78;45.50
10476;BME280;26166;48.264;11.436;2023-01-31T14:58:30;96796.72;;;8.70;45.54
10476;BME280;26166;48.264;11.436;2023-01-31T15:01:33;96779.06;;;8.72;45.33
10476;BME280;26166;48.264;11.436;2023-01-31T15:04:35;96779.91;;;8.73;45.50
10476;BME280;26166;48.264;11.436;2023-01-31T15:07:35;96778.78;;;8.75;45.52
10476;BME280;26166;48.264;11.436;2023-01-31T15:14:19;96775.47;;;8.73;45.64
10476;BME280;26166;48.264;11.436;2023-01-31T15:17:23;96770.91;;;8.75;45.67
10476;BME280;26166;48.264;11.436;2023-01-31T15:20:30;96780.41;;;8.76;45.74
10476;BME280;26166;48.264;11.436;2023-01-31T15:23:33;96780.84;;;8.72;45.54
10476;BME280;26166;48.264;11.436;2023-01-31T15:26:34;96772.88;;;8.73;45.53
10476;BME280;26166;48.264;11.436;2023-01-31T15:35:58;96729.44;;;8.71;45.60
10476;BME280;26166;48.264;11.436;2023-01-31T15:39:15;96740.47;;;8.74;45.44
10476;BME280;26166;48.264;11.436;2023-01-31T15:42:31;96750.94;;;8.74;45.70
10476;BME280;26166;48.264;11.436;2023-01-31T15:45:31;96754.38;;;8.75;45.54
10476;BME280;26166;48.264;11.436;2023-01-31T15:48:31;96755.63;;;8.71;45.51
10476;BME280;26166;48.264;11.436;2023-01-31T15:51:31;96742.00;;;8.67;45.63
10476;BME280;26166;48.264;11.436;2023-01-31T15:54:32;96750.69;;;8.68;45.73
10476;BME280;26166;48.264;11.436;2023-01-31T16:00:36;96747.81;;;8.61;45.84
10476;BME280;26166;48.264;11.436;2023-01-31T16:03:39;96757.03;;;8.65;45.72
10476;BME280;26166;48.264;11.436;2023-01-31T16:06:40;96764.75;;;8.67;45.82
10476;BME280;26166;48.264;11.436;2023-01-31T16:09:41;96771.94;;;8.65;45.90
10476;BME280;26166;48.264;11.436;2023-01-31T16:12:42;96784.75;;;8.68;45.96
10476;BME280;26166;48.264;11.436;2023-01-31T16:15:43;96778.53;;;8.69;45.72
10476;BME280;26166;48.264;11.436;2023-01-31T16:18:48;96776.19;;;8.66;45.69
10476;BME280;26166;48.264;11.436;2023-01-31T16:21:49;96772.91;;;8.64;45.93
10476;BME280;26166;48.264;11.436;2023-01-31T16:24:53;96773.03;;;8.62;46.11
10476;BME280;26166;48.264;11.436;2023-01-31T16:27:53;96757.03;;;8.65;46.12
10476;BME280;26166;48.264;11.436;2023-01-31T16:31:02;96753.59;;;8.65;45.82
10476;BME280;26166;48.264;11.436;2023-01-31T16:34:04;96754.25;;;8.67;45.79
10476;BME280;26166;48.264;11.436;2023-01-31T16:37:08;96757.03;;;8.65;46.29
10476;BME280;26166;48.264;11.436;2023-01-31T16:43:22;96777.84;;;8.57;46.46
10476;BME280;26166;48.264;11.436;2023-01-31T16:46:45;96777.16;;;8.65;46.59
10476;BME280;26166;48.264;11.436;2023-01-31T16:49:45;96787.59;;;8.74;46.35
10476;BME280;26166;48.264;11.436;2023-01-31T16:52:49;96777.41;;;8.81;46.28
10476;BME280;26166;48.264;11.436;2023-01-31T17:02:28;96772.13;;;8.91;46.16
10476;BME280;26166;48.264;11.436;2023-01-31T17:05:40;96778.72;;;8.95;46.06
10476;BME280;26166;48.264;11.436;2023-01-31T17:08:42;96796.38;;;8.93;46.08
10476;BME280;26166;48.264;11.436;2023-01-31T17:11:42;96797.50;;;8.90;45.79
10476;BME280;26166;48.264;11.436;2023-01-31T17:14:42;96793.75;;;8.93;45.97
10476;BME280;26166;48.264;11.436;2023-01-31T17:17:43;96811.00;;;8.95;45.97
10476;BME280;26166;48.264;11.436;2023-01-31T17:20:44;96804.94;;;8.95;45.78
10476;BME280;26166;48.264;11.436;2023-01-31T17:23:44;96803.25;;;8.94;45.80
10476;BME280;26166;48.264;11.436;2023-01-31T17:26:44;96798.88;;;8.94;45.72
10476;BME280;26166;48.264;11.436;2023-01-31T17:29:45;96786.59;;;8.95;45.84
10476;BME280;26166;48.264;11.436;2023-01-31T17:32:48;96794.72;;;8.92;45.67
10476;BME280;26166;48.264;11.436;2023-01-31T17:35:48;96785.75;;;8.94;45.82
10476;BME280;26166;48.264;11.436;2023-01-31T17:38:50;96782.84;;;8.97;45.72
10476;BME280;26166;48.264;11.436;2023-01-31T17:41:51;96787.25;;;8.97;45.85
10476;BME280;26166;48.264;11.436;2023-01-31T17:44:51;96784.78;;;8.95;45.80
10476;BME280;26166;48.264;11.436;2023-01-31T17:47:51;96774.44;;;8.94;45.74
10476;BME280;26166;48.264;11.436;2023-01-31T17:50:52;96779.00;;;8.92;45.65
10476;BME280;26166;48.264;11.436;2023-01-31T17:53:52;96787.53;;;8.94;45.63
10476;BME280;26166;48.264;11.436;2023-01-31T17:56:52;96789.22;;;8.95;45.77
10476;BME280;26166;48.264;11.436;2023-01-31T17:59:52;96796.09;;;8.96;45.68
10476;BME280;26166;48.264;11.436;2023-01-31T18:02:53;96797.75;;;8.97;45.69
10476;BME280;26166;48.264;11.436;2023-01-31T18:05:53;96808.50;;;8.94;45.80
10476;BME280;26166;48.264;11.436;2023-01-31T18:08:53;96803.56;;;8.91;45.63
10476;BME280;26166;48.264;11.436;2023-01-31T18:11:54;96807.81;;;8.92;45.52
10476;BME280;26166;48.264;11.436;2023-01-31T18:14:55;96810.44;;;8.92;45.47
10476;BME280;26166;48.264;11.436;2023-01-31T18:17:55;96798.31;;;8.91;45.57
10476;BME280;26166;48.264;11.436;2023-01-31T18:20:55;96819.28;;;8.91;45.25
10476;BME280;26166;48.264;11.436;2023-01-31T18:23:56;96811.25;;;8.92;45.38
10476;BME280;26166;48.264;11.436;2023-01-31T18:26:56;96812.91;;;8.93;45.16
10476;BME280;26166;48.264;11.436;2023-01-31T18:29:56;96820.94;;;8.92;45.32
10476;BME280;26166;48.264;11.436;2023-01-31T18:32:56;96817.34;;;8.93;45.27
10476;BME280;26166;48.264;11.436;2023-01-31T18:35:57;96813.22;;;8.90;45.24
10476;BME280;26166;48.264;11.436;2023-01-31T18:38:58;96800.78;;;8.92;45.44
10476;BME280;26166;48.264;11.436;2023-01-31T18:41:58;96805.22;;;8.92;45.19